Time;durP1;ratioP1;P1;durP2;ratioP2;P2;SDS_P1;SDS_P2;PMS_P1;PMS_P2;Temp;Humidity;BMP_temperature;BMP_pressure;BME280_temperature;BME280_humidity;BME280_pressure;Samples;Min_cycle;Max_cycle;Signal;HPM_P1;HPM_P2
2022/08/08 00:02:05;;;;;;;;;;;;;;;17.76;100.00;100875.22;1710418;82;20991;-43
2022/08/08 00:04:53;;;;;;;14.03;3.70;;;;;;;17.79;100.00;100871.63;1710438;83;20148;-43
2022/08/08 00:07:40;;;;;;;11.63;3.90;;;;;;;17.81;100.00;100865.42;1664991;85;21031;-43
2022/08/08 00:10:26;;;;;;;11.78;3.65;;;;;;;17.81;100.00;100863.25;1707564;82;21027;-43
2022/08/08 00:13:08;;;;;;;8.28;3.75;;;;;;;17.77;100.00;100869.06;1717556;83;21023;-43
2022/08/08 00:15:46;;;;;;;8.53;3.83;;;;;;;17.74;100.00;100869.20;1691075;83;21167;-43
2022/08/08 00:18:27;;;;;;;5.35;3.47;;;;;;;17.71;100.00;100870.64;1713333;83;21515;-43
2022/08/08 00:20:57;;;;;;;3.42;3.15;;;;;;;17.63;100.00;100874.05;1702597;83;21064;-44
2022/08/08 00:23:38;;;;;;;12.20;3.98;;;;;;;17.57;100.00;100883.47;1710341;83;21503;-43
2022/08/08 00:26:07;;;;;;;8.83;3.62;;;;;;;17.50;100.00;100874.53;1709336;82;20973;-43
2022/08/08 00:28:40;;;;;;;9.03;3.00;;;;;;;17.44;100.00;100871.34;1667154;85;22337;-43
2022/08/08 00:31:15;;;;;;;9.10;3.70;;;;;;;17.37;100.00;100875.96;1639263;86;20964;-43
2022/08/08 00:33:48;;;;;;;5.20;3.42;;;;;;;17.27;100.00;100870.24;1705219;83;20991;-43
2022/08/08 00:36:26;;;;;;;11.97;3.85;;;;;;;17.19;100.00;100866.62;1705480;83;20952;-43
2022/08/08 00:39:10;;;;;;;11.35;4.15;;;;;;;17.15;100.00;100866.34;1701309;83;22209;-44
2022/08/08 00:41:50;;;;;;;7.05;3.50;;;;;;;17.17;100.00;100858.42;1707465;83;21133;-43
2022/08/08 00:45:04;;;;;;;9.03;3.90;;;;;;;17.21;100.00;100863.48;1710112;83;20988;-43
2022/08/08 00:47:58;;;;;;;11.78;3.27;;;;;;;17.19;100.00;100860.55;1708746;83;20956;-43
2022/08/08 00:50:57;;;;;;;3.62;3.33;;;;;;;17.09;100.00;100862.67;1681745;85;20968;-43
2022/08/08 00:54:05;;;;;;;18.80;3.47;;;;;;;17.03;100.00;100853.73;1678601;84;21403;-43
2022/08/08 00:57:20;;;;;;;8.55;3.50;;;;;;;17.02;100.00;100852.91;1714179;83;22193;-43
2022/08/08 01:00:07;;;;;;;12.37;4.25;;;;;;;17.03;100.00;100851.99;1710892;82;21028;-44
2022/08/08 01:03:13;;;;;;;5.60;4.00;;;;;;;17.04;100.00;100855.00;1704479;83;21478;-43
2022/08/08 01:06:22;;;;;;;9.50;4.60;;;;;;;17.07;100.00;100852.73;1707443;83;20957;-44
2022/08/08 01:09:10;;;;;;;9.25;4.35;;;;;;;17.19;100.00;100860.08;1691096;84;21053;-43
2022/08/08 01:12:23;;;;;;;10.60;4.50;;;;;;;17.23;100.00;100858.20;1683535;84;21350;-43
2022/08/08 01:15:34;;;;;;;12.30;5.12;;;;;;;17.31;100.00;100861.36;1693933;84;20952;-44
2022/08/08 01:18:36;;;;;;;15.72;4.22;;;;;;;17.36;100.00;100860.70;1615650;87;21056;-43
2022/08/08 01:21:28;;;;;;;10.48;4.10;;;;;;;17.36;100.00;100858.09;1586837;88;21127;-43
2022/08/08 01:24:27;;;;;;;12.98;4.60;;;;;;;17.37;100.00;100865.02;1740762;81;21519;-43
2022/08/08 01:27:16;;;;;;;14.50;4.72;;;;;;;17.35;100.00;100860.78;1679395;85;21277;-43
2022/08/08 01:30:25;;;;;;;10.53;4.37;;;;;;;17.34;100.00;100867.77;1712471;82;21005;-43
2022/08/08 01:33:41;;;;;;;17.48;5.05;;;;;;;17.34;100.00;100866.93;1679535;83;20976;-43
2022/08/08 01:36:48;;;;;;;9.50;4.80;;;;;;;17.37;100.00;100869.42;1741422;81;20937;-43
2022/08/08 01:39:39;;;;;;;8.48;4.08;;;;;;;17.37;100.00;100871.56;1655717;85;20972;-44
2022/08/08 01:42:34;;;;;;;14.40;4.62;;;;;;;17.35;100.00;100875.17;1737498;81;21241;-44
2022/08/08 01:45:13;;;;;;;8.60;4.97;;;;;;;17.33;100.00;100880.92;1684521;85;20958;-44
2022/08/08 01:48:02;;;;;;;13.68;4.50;;;;;;;17.30;100.00;100884.50;1734535;82;20921;-43
2022/08/08 01:51:03;;;;;;;7.25;4.47;;;;;;;17.28;100.00;100882.85;1684972;83;20996;-43
2022/08/08 01:53:58;;;;;;;11.53;4.42;;;;;;;17.26;100.00;100888.60;1695748;84;20988;-43
2022/08/08 01:57:01;;;;;;;9.45;4.42;;;;;;;17.24;100.00;100888.20;1737498;82;21165;-44
2022/08/08 02:00:01;;;;;;;7.25;4.28;;;;;;;17.24;100.00;100882.14;1746441;81;20984;-43
2022/08/08 02:02:45;;;;;;;7.15;4.50;;;;;;;17.22;100.00;100882.19;1743186;80;21057;-43
2022/08/08 02:05:47;;;;;;;8.20;4.60;;;;;;;17.21;100.00;100887.50;1710397;83;21051;-43
2022/08/08 02:08:39;;;;;;;12.07;4.45;;;;;;;17.18;100.00;100889.77;1763037;80;21026;-44
2022/08/08 02:11:28;;;;;;;7.03;4.55;;;;;;;17.15;100.00;100900.35;1756516;81;21173;-43
2022/08/08 02:14:00;;;;;;;6.83;3.98;;;;;;;17.13;100.00;100897.39;1756025;81;21043;-44
2022/08/08 02:17:13;;;;;;;11.30;4.72;;;;;;;17.12;100.00;100904.84;1756941;81;21093;-43
2022/08/08 02:20:21;;;;;;;10.95;4.87;;;;;;;17.08;100.00;100903.66;1753425;81;20967;-44
2022/08/08 02:23:11;;;;;;;11.18;4.65;;;;;;;17.07;100.00;100905.03;1754379;81;21144;-43
2022/08/08 02:26:02;;;;;;;6.92;4.75;;;;;;;17.03;100.00;100905.59;1740622;80;22080;-44
2022/08/08 02:28:40;;;;;;;11.63;4.90;;;;;;;17.03;100.00;100909.96;1689092;81;21023;-43
2022/08/08 02:31:56;;;;;;;4.60;4.20;;;;;;;17.03;100.00;100907.34;1716544;83;20996;-43
2022/08/08 02:34:48;;;;;;;10.88;4.65;;;;;;;17.05;100.00;100906.83;1720732;83;21988;-44
2022/08/08 02:37:41;;;;;;;6.97;4.45;;;;;;;17.05;100.00;100906.83;1701481;84;20972;-44
2022/08/08 02:40:38;;;;;;;5.05;4.58;;;;;;;17.05;100.00;100904.22;1690702;84;21310;-43
2022/08/08 02:43:26;;;;;;;6.45;4.62;;;;;;;17.03;100.00;100900.38;1690284;84;20971;-43
2022/08/08 02:46:28;;;;;;;6.47;4.87;;;;;;;17.02;100.00;100918.72;1690595;84;21055;-44
2022/08/08 02:49:30;;;;;;;18.10;4.92;;;;;;;17.02;100.00;100922.64;1710075;82;20939;-43
2022/08/08 02:52:08;;;;;;;11.80;4.67;;;;;;;17.03;100.00;100925.66;1691203;84;21035;-44
2022/08/08 02:55:01;;;;;;;8.95;4.85;;;;;;;17.04;100.00;100925.61;1695859;84;21802;-43
2022/08/08 02:58:12;;;;;;;11.68;5.08;;;;;;;17.04;100.00;100925.61;1695925;83;20971;-44
2022/08/08 03:01:05;;;;;;;10.98;5.20;;;;;;;17.05;100.00;100929.06;1709989;83;20948;-44
2022/08/08 03:03:54;;;;;;;7.37;4.53;;;;;;;17.06;100.00;100938.17;1692354;83;20949;-44
2022/08/08 03:06:43;;;;;;;8.03;5.05;;;;;;;17.12;100.00;100946.24;1707818;84;20992;-44
2022/08/08 03:10:08;;;;;;;11.08;4.80;;;;;;;17.14;100.00;100944.42;1682008;85;21388;-43
2022/08/08 03:12:53;;;;;;;8.75;5.22;;;;;;;17.15;100.00;100943.51;1749153;82;20941;-44
2022/08/08 03:15:53;;;;;;;7.60;5.08;;;;;;;17.17;100.00;100949.53;1724579;81;20956;-43
2022/08/08 03:18:46;;;;;;;6.42;5.28;;;;;;;17.18;100.00;100943.86;1749078;82;20957;-43
2022/08/08 03:21:13;;;;;;;5.97;5.30;;;;;;;17.19;100.00;100949.02;1749380;81;20983;-44
2022/08/08 03:23:40;;;;;;;6.92;4.83;;;;;;;17.23;100.00;100954.98;1751415;81;21841;-44
2022/08/08 03:26:07;;;;;;;10.75;5.17;;;;;;;17.24;100.00;100952.30;1749135;82;21038;-44
2022/08/08 03:28:45;;;;;;;7.95;4.67;;;;;;;17.26;100.00;100956.61;1751811;81;20964;-44
2022/08/08 03:33:58;;;;;;;10.60;4.72;;;;;;;17.30;100.00;100959.50;1749231;81;20948;-43
2022/08/08 03:36:26;;;;;;;5.65;4.75;;;;;;;17.32;100.00;100965.09;1752011;81;21188;-43
2022/08/08 03:38:53;;;;;;;10.72;5.15;;;;;;;17.35;100.00;100970.67;1749240;80;20934;-43
2022/08/08 03:41:21;;;;;;;12.37;5.17;;;;;;;17.37;100.00;100974.08;1749190;82;20941;-43
2022/08/08 03:43:56;;;;;;;10.82;4.85;;;;;;;17.42;100.00;100962.97;1683999;83;20900;-43
2022/08/08 03:46:24;;;;;;;5.60;4.87;;;;;;;17.46;100.00;100971.56;1726865;82;21011;-43
2022/08/08 03:48:59;;;;;;;8.58;5.40;;;;;;;17.51;100.00;100974.38;1689240;83;21136;-43
2022/08/08 03:51:28;;;;;;;8.83;5.20;;;;;;;17.59;100.00;100981.09;1762483;81;20995;-43
2022/08/08 03:53:55;;;;;;;13.90;5.10;;;;;;;17.66;100.00;100981.23;1756955;81;21149;-43
2022/08/08 03:56:22;;;;;;;12.43;5.28;;;;;;;17.79;100.00;100978.97;1747693;81;21611;-43
2022/08/08 03:58:51;;;;;;;8.03;4.50;;;;;;;17.95;100.00;100971.34;1744116;81;21546;-44
2022/08/08 04:01:19;;;;;;;10.60;5.10;;;;;;;18.11;100.00;100973.37;1742631;80;21084;-44
2022/08/08 04:03:48;;;;;;;7.40;5.33;;;;;;;18.25;100.00;100977.55;1738137;81;20983;-43
2022/08/08 04:06:15;;;;;;;8.38;5.00;;;;;;;18.42;100.00;100982.53;1743995;81;21256;-43
2022/08/08 04:08:43;;;;;;;6.78;5.65;;;;;;;18.56;100.00;100984.08;1764463;81;21067;-43
2022/08/08 04:11:15;;;;;;;7.95;5.60;;;;;;;18.67;100.00;100980.98;1751590;80;20972;-44
2022/08/08 04:13:41;;;;;;;9.75;5.37;;;;;;;18.86;100.00;100984.98;1743757;82;21251;-43
2022/08/08 04:16:08;;;;;;;8.15;5.65;;;;;;;19.06;100.00;100989.34;1743633;81;21471;-44
2022/08/08 04:18:37;;;;;;;9.43;5.72;;;;;;;19.18;100.00;100990.55;1743343;81;21008;-43
2022/08/08 04:21:04;;;;;;;17.48;6.47;;;;;;;19.29;100.00;100994.44;1740868;81;21448;-44
2022/08/08 04:23:32;;;;;;;9.03;5.37;;;;;;;19.39;100.00;100994.41;1744625;81;21540;-44
2022/08/08 04:26:00;;;;;;;7.47;5.30;;;;;;;19.51;100.00;100991.67;1735448;81;21147;-43
2022/08/08 04:28:27;;;;;;;6.37;5.75;;;;;;;19.60;100.00;100996.47;1713807;82;20929;-43
2022/08/08 04:30:54;;;;;;;6.78;5.92;;;;;;;19.65;100.00;100994.47;1743640;81;21000;-43
2022/08/08 04:33:21;;;;;;;7.95;5.25;;;;;;;19.77;100.00;101003.53;1712452;82;21541;-43
2022/08/08 04:35:50;;;;;;;10.23;5.72;;;;;;;19.91;100.00;100998.11;1712253;82;20966;-43
2022/08/08 04:38:17;;;;;;;8.10;5.60;;;;;;;19.98;100.00;100995.56;1707912;84;21160;-43
2022/08/08 04:40:44;;;;;;;9.60;5.90;;;;;;;20.08;100.00;100993.33;1706044;84;20981;-43
2022/08/08 04:43:11;;;;;;;19.10;6.08;;;;;;;20.23;100.00;100993.02;1769401;81;20991;-43
2022/08/08 04:45:39;;;;;;;8.93;5.72;;;;;;;20.31;100.00;100998.72;1762374;80;20933;-44
2022/08/08 04:48:06;;;;;;;10.72;5.72;;;;;;;20.41;100.00;101007.47;1743472;81;21300;-44
2022/08/08 04:50:35;;;;;;;6.42;5.70;;;;;;;20.53;100.00;101006.37;1707763;83;21289;-43
2022/08/08 04:53:03;;;;;;;9.88;5.65;;;;;;;20.68;100.00;101002.09;1703128;84;21001;-44
2022/08/08 04:55:29;;;;;;;9.93;6.00;;;;;;;20.85;100.00;101003.03;1732853;82;20977;-44
2022/08/08 04:57:57;;;;;;;6.95;6.08;;;;;;;21.04;100.00;101009.46;1710905;81;21526;-44
2022/08/08 05:00:24;;;;;;;10.60;5.97;;;;;;;21.16;100.00;101013.21;1713983;82;20909;-44
2022/08/08 05:02:51;;;;;;;8.88;6.00;;;;;;;21.32;100.00;101007.09;1698388;82;21162;-44
2022/08/08 05:05:18;;;;;;;9.00;5.55;;;;;;;21.46;100.00;101003.23;1704620;84;20945;-44
2022/08/08 05:07:46;;;;;;;10.30;5.83;;;;;;;21.61;100.00;101000.69;1732849;81;20947;-44
2022/08/08 05:10:14;;;;;;;9.80;5.10;;;;;;;21.78;100.00;101012.92;1743585;81;20968;-44
2022/08/08 05:12:41;;;;;;;6.97;5.47;;;;;;;21.88;100.00;101017.20;1722927;82;20972;-44
2022/08/08 05:15:09;;;;;;;8.73;4.62;;;;;;;21.90;100.00;101015.33;1736988;81;21245;-45
2022/08/08 05:17:36;;;;;;;9.48;4.72;;;;;;;22.01;100.00;101017.34;1729580;82;20940;-44
2022/08/08 05:20:06;;;;;;;14.28;5.10;;;;;;;22.05;100.00;101017.06;1732886;82;21225;-44
2022/08/08 05:22:35;;;;;;;8.40;5.30;;;;;;;22.16;100.00;101019.55;1736997;82;22103;-44
2022/08/08 05:25:03;;;;;;;8.65;4.78;;;;;;;22.27;100.00;101014.97;1743712;82;20984;-44
2022/08/08 05:27:30;;;;;;;12.15;5.55;;;;;;;22.37;100.00;101017.43;1743557;81;22082;-44
2022/08/08 05:29:57;;;;;;;10.28;4.70;;;;;;;22.55;100.00;101024.73;1743607;82;20941;-44
2022/08/08 05:32:26;;;;;;;5.67;5.05;;;;;;;22.68;100.00;101018.25;1744443;81;20901;-44
2022/08/08 05:34:53;;;;;;;9.98;5.15;;;;;;;22.84;100.00;101023.92;1749527;81;20933;-44
2022/08/08 05:37:27;;;;;;;9.15;4.80;;;;;;;22.90;100.00;101025.72;1722977;82;20944;-44
2022/08/08 05:39:54;;;;;;;8.38;5.22;;;;;;;22.91;100.00;101026.09;1744525;81;21838;-44
2022/08/08 05:42:31;;;;;;;18.10;6.28;;;;;;;23.03;100.00;101026.26;1722698;82;20948;-44
2022/08/08 05:44:58;;;;;;;10.25;6.22;;;;;;;23.17;100.00;101029.36;1732202;82;21015;-44
2022/08/08 05:47:25;;;;;;;9.63;5.95;;;;;;;23.32;100.00;101027.11;1742004;82;21019;-43
2022/08/08 05:49:52;;;;;;;18.02;6.55;;;;;;;23.52;100.00;101027.64;1744347;81;21222;-44
2022/08/08 05:52:18;;;;;;;10.32;6.55;;;;;;;23.71;100.00;101022.00;1742832;81;21114;-44
2022/08/08 05:54:45;;;;;;;11.63;6.00;;;;;;;23.91;99.63;101030.42;1741643;81;20905;-44
2022/08/08 05:57:14;;;;;;;10.03;6.60;;;;;;;23.99;99.17;101030.75;1745872;81;20933;-43
2022/08/08 05:59:48;;;;;;;13.48;6.70;;;;;;;24.03;97.63;101028.30;1738394;81;20980;-43
2022/08/08 06:05:09;;;;;;;7.90;6.35;;;;;;;24.13;96.88;101033.83;1748557;81;21927;-43
2022/08/08 06:07:40;;;;;;;13.68;6.65;;;;;;;24.16;96.65;101029.66;1737192;81;21531;-43
2022/08/08 06:10:10;;;;;;;15.55;6.78;;;;;;;24.23;95.35;101028.77;1745657;81;20968;-43
2022/08/08 06:12:38;;;;;;;11.85;6.65;;;;;;;24.24;94.74;101025.17;1736751;81;20937;-43
2022/08/08 06:15:06;;;;;;;11.45;6.65;;;;;;;24.28;94.72;101027.15;1716842;81;21005;-43
2022/08/08 06:17:38;;;;;;;10.70;6.28;;;;;;;24.35;94.86;101032.39;1737559;81;21097;-44
2022/08/08 06:20:12;;;;;;;8.25;5.85;;;;;;;24.35;93.16;101029.25;1743916;81;20944;-43
2022/08/08 06:22:39;;;;;;;13.70;6.22;;;;;;;24.27;93.69;101028.10;1733772;81;20976;-44
2022/08/08 06:25:09;;;;;;;14.68;5.78;;;;;;;24.20;94.11;101023.70;1706735;82;20974;-44
2022/08/08 06:27:41;;;;;;;7.87;5.97;;;;;;;24.25;95.14;101028.19;1707745;84;21030;-43
2022/08/08 06:30:10;;;;;;;9.13;6.33;;;;;;;24.45;93.13;101026.83;1707381;84;22577;-44
2022/08/08 06:32:46;;;;;;;8.98;5.72;;;;;;;24.65;92.99;101027.27;1746843;81;20960;-44
2022/08/08 06:35:14;;;;;;;13.55;5.55;;;;;;;24.88;93.04;101028.33;1732638;81;20975;-43
2022/08/08 06:37:58;;;;;;;10.80;5.80;;;;;;;25.07;92.72;101028.36;1736185;82;21176;-44
2022/08/08 06:40:30;;;;;;;8.98;5.85;;;;;;;25.28;92.18;101029.97;1723516;82;20890;-44
2022/08/08 06:43:06;;;;;;;10.45;5.35;;;;;;;25.54;91.24;101036.04;1743662;81;21253;-44
2022/08/08 06:45:37;;;;;;;6.37;5.72;;;;;;;25.76;89.56;101023.86;1707255;83;20975;-43
2022/08/08 06:48:04;;;;;;;9.83;5.33;;;;;;;25.96;85.32;101033.47;1707683;84;21321;-44
2022/08/08 06:50:33;;;;;;;5.20;4.70;;;;;;;26.01;84.37;101031.31;1684370;83;20992;-44
2022/08/08 06:53:02;;;;;;;10.48;5.12;;;;;;;26.07;84.45;101030.84;1728965;82;21586;-44
2022/08/08 06:55:30;;;;;;;12.33;5.12;;;;;;;26.15;84.69;101030.77;1741417;81;21283;-44
2022/08/08 06:57:57;;;;;;;12.30;5.42;;;;;;;26.24;83.47;101028.77;1736926;81;20983;-44
2022/08/08 07:00:24;;;;;;;8.63;5.15;;;;;;;26.37;80.52;101028.67;1744271;81;21065;-44
2022/08/08 07:02:53;;;;;;;12.05;5.42;;;;;;;26.56;80.91;101031.23;1709386;83;20945;-44
2022/08/08 07:05:23;;;;;;;6.67;4.92;;;;;;;26.74;81.11;101028.45;1667032;84;21023;-44
2022/08/08 07:08:01;;;;;;;9.73;5.05;;;;;;;26.92;80.49;101029.34;1641876;86;21137;-44
2022/08/08 07:10:37;;;;;;;7.33;4.72;;;;;;;27.12;79.41;101022.43;1654925;86;22329;-44
2022/08/08 07:13:09;;;;;;;10.40;5.60;;;;;;;27.37;79.35;101024.44;1662949;86;20984;-44
2022/08/08 07:16:23;;;;;;;;;;;;;;;;;;;;;
2022/08/08 07:19:22;;;;;;;9.90;5.25;;;;;;;27.87;77.05;101025.28;1797383;79;22595;-43
2022/08/08 07:22:03;;;;;;;17.48;4.42;;;;;;;27.92;73.32;101027.06;1787021;79;20989;-44
2022/08/08 07:24:53;;;;;;;11.88;4.42;;;;;;;27.99;72.07;101025.21;1798908;79;21332;-44
2022/08/08 07:27:24;;;;;;;13.30;4.83;;;;;;;28.22;71.86;101029.47;1789081;79;21517;-44
2022/08/08 07:29:51;;;;;;;11.60;4.95;;;;;;;28.35;69.16;101027.94;1789995;79;21209;-44
2022/08/08 07:32:19;;;;;;;21.73;7.22;;;;;;;28.37;66.74;101033.14;1792364;79;20951;-44
2022/08/08 07:34:47;;;;;;;8.88;5.17;;;;;;;28.33;70.53;101025.89;1786059;79;20924;-44
2022/08/08 07:37:14;;;;;;;5.25;4.78;;;;;;;28.40;71.51;101032.88;1788704;79;21793;-45
2022/08/08 07:39:43;;;;;;;7.47;4.50;;;;;;;28.45;71.22;101032.49;1787543;79;20869;-44
2022/08/08 07:42:16;;;;;;;8.05;5.20;;;;;;;28.40;70.31;101040.36;1788624;79;20897;-44
2022/08/08 07:44:42;;;;;;;8.70;4.95;;;;;;;28.34;71.17;101043.55;1787324;79;20932;-44
2022/08/08 07:47:10;;;;;;;9.78;4.33;;;;;;;28.32;71.32;101043.34;1747785;81;20970;-44
2022/08/08 07:49:38;;;;;;;6.72;4.90;;;;;;;28.39;69.72;101045.83;1731401;82;21562;-44
2022/08/08 07:52:09;;;;;;;8.75;4.45;;;;;;;28.52;70.25;101052.28;1736184;82;21642;-44
2022/08/08 07:55:06;;;;;;;8.08;4.40;;;;;;;28.52;68.69;101042.96;1744334;81;20931;-44
2022/08/08 07:57:41;;;;;;;7.90;5.10;;;;;;;28.45;69.59;101055.12;1741330;82;20940;-43
2022/08/08 08:00:14;;;;;;;13.18;4.90;;;;;;;28.58;69.93;101045.09;1741113;82;21589;-44
2022/08/08 08:03:02;;;;;;;6.20;4.95;;;;;;;28.89;71.01;101056.27;1740580;82;21794;-44
2022/08/08 08:05:30;;;;;;;9.55;5.40;;;;;;;29.24;70.86;101048.31;1740889;82;20971;-45
2022/08/08 08:08:07;;;;;;;9.60;4.90;;;;;;;29.62;67.08;101051.20;1741026;82;21032;-45
2022/08/08 08:10:37;;;;;;;7.83;4.97;;;;;;;29.93;66.21;101042.58;1742886;81;21092;-44
2022/08/08 08:13:21;;;;;;;10.18;4.55;;;;;;;30.25;64.53;101043.28;1748659;81;20940;-44
2022/08/08 08:16:03;;;;;;;5.15;4.30;;;;;;;30.51;65.14;101035.47;1742524;82;21158;-44
2022/08/08 08:18:42;;;;;;;9.68;4.20;;;;;;;30.93;63.37;101044.89;1702412;83;20984;-45
2022/08/08 08:21:09;;;;;;;7.20;3.92;;;;;;;31.26;59.94;101049.81;1676716;84;20980;-44
2022/08/08 08:23:37;;;;;;;3.58;3.30;;;;;;;31.59;57.48;101050.66;1707335;83;21047;-44
2022/08/08 08:26:04;;;;;;;6.60;2.85;;;;;;;31.97;55.44;101048.69;1721429;83;21036;-45
2022/08/08 08:28:32;;;;;;;12.35;3.10;;;;;;;32.12;51.59;101057.00;1724364;82;21318;-45
2022/08/08 08:31:03;;;;;;;8.08;3.58;;;;;;;31.84;49.33;101058.94;1724102;83;21050;-44
2022/08/08 08:33:29;;;;;;;5.95;3.67;;;;;;;31.33;51.10;101062.95;1724448;83;20921;-45
2022/08/08 08:35:56;;;;;;;9.90;4.45;;;;;;;30.72;52.83;101062.50;1724256;83;20995;-44
2022/08/08 08:38:24;;;;;;;5.60;3.55;;;;;;;30.06;55.05;101074.34;1724325;83;21054;-44
2022/08/08 08:40:52;;;;;;;9.78;4.50;;;;;;;29.39;57.27;101075.41;1721405;83;21161;-44
2022/08/08 08:43:19;;;;;;;91.87;73.57;;;;;;;28.99;60.91;101070.45;1724052;83;21538;-44
2022/08/08 08:45:48;;;;;;;8.60;5.60;;;;;;;28.91;63.70;101072.45;1724254;83;21043;-44
2022/08/08 08:48:16;;;;;;;9.25;4.42;;;;;;;28.74;63.02;101071.23;1724184;83;21556;-44
2022/08/08 08:50:44;;;;;;;59.27;34.40;;;;;;;28.52;65.63;101076.23;1724282;83;20913;-44
2022/08/08 08:53:12;;;;;;;10.68;8.43;;;;;;;28.51;66.55;101070.56;1724189;83;21070;-45
2022/08/08 08:55:40;;;;;;;8.38;4.90;;;;;;;28.49;66.34;101074.66;1724325;83;21052;-44
2022/08/08 08:58:18;;;;;;;6.12;4.70;;;;;;;28.53;67.40;101067.27;1724196;81;20948;-44
2022/08/08 09:00:45;;;;;;;11.55;4.47;;;;;;;28.65;65.63;101068.87;1723116;83;20996;-44
2022/08/08 09:03:12;;;;;;;9.63;6.53;;;;;;;28.76;64.61;101064.45;1724431;82;20948;-44
2022/08/08 09:05:40;;;;;;;16.27;10.82;;;;;;;28.86;66.61;101071.19;1724347;83;21221;-45
2022/08/08 09:08:08;;;;;;;13.00;8.70;;;;;;;29.04;66.24;101064.73;1724256;83;20909;-45
2022/08/08 09:10:37;;;;;;;11.75;6.83;;;;;;;29.20;65.68;101061.08;1724302;83;21608;-44
2022/08/08 09:13:05;;;;;;;20.70;12.90;;;;;;;29.41;65.36;101061.48;1724325;83;20951;-45
2022/08/08 09:15:33;;;;;;;17.67;6.92;;;;;;;29.39;63.15;101062.94;1724264;83;20999;-45
2022/08/08 09:18:00;;;;;;;13.85;5.00;;;;;;;29.22;63.46;101072.45;1724106;82;21284;-45
2022/08/08 09:20:28;;;;;;;7.37;4.37;;;;;;;29.17;64.22;101077.31;1724107;83;20956;-45
2022/08/08 09:22:56;;;;;;;4.50;4.10;;;;;;;29.28;63.33;101071.03;1724377;83;20917;-45
2022/08/08 09:25:24;;;;;;;7.40;4.45;;;;;;;29.15;64.85;101070.45;1724252;83;21028;-44
2022/08/08 09:27:51;;;;;;;11.60;4.60;;;;;;;29.10;63.68;101069.52;1693600;83;21050;-44
2022/08/08 09:30:18;;;;;;;14.38;6.60;;;;;;;28.96;63.45;101067.59;1724372;81;21243;-44
2022/08/08 09:32:53;;;;;;;5.28;4.80;;;;;;;28.92;64.17;101067.98;1724249;83;21643;-44
2022/08/08 09:35:24;;;;;;;7.97;4.35;;;;;;;28.85;62.83;101071.66;1724550;82;20996;-44
2022/08/08 09:37:53;;;;;;;9.68;4.42;;;;;;;28.77;62.15;101070.13;1724038;83;21003;-43
2022/08/08 09:40:24;;;;;;;9.13;4.97;;;;;;;28.70;63.81;101065.81;1723732;81;21035;-44
2022/08/08 09:43:15;;;;;;;5.42;3.92;;;;;;;28.82;64.79;101067.94;1724103;83;21123;-44
2022/08/08 09:46:01;;;;;;;5.55;4.55;;;;;;;29.00;64.31;101069.98;1724295;83;20988;-43
2022/08/08 09:48:34;;;;;;;10.68;3.85;;;;;;;29.25;63.20;101065.98;1724515;83;21011;-43
2022/08/08 09:51:01;;;;;;;11.70;4.47;;;;;;;29.35;61.03;101063.34;1724447;83;21015;-43
2022/08/08 09:53:42;;;;;;;9.48;4.35;;;;;;;29.52;62.01;101060.05;1724474;83;21533;-44
2022/08/08 09:56:11;;;;;;;5.30;4.00;;;;;;;29.86;63.71;101055.28;1715084;83;21464;-44
2022/08/08 09:58:40;;;;;;;8.95;4.35;;;;;;;30.31;60.10;101048.52;1723888;82;20960;-44
2022/08/08 10:01:08;;;;;;;6.72;4.60;;;;;;;30.61;60.16;101052.84;1724535;83;21531;-43
2022/08/08 10:03:36;;;;;;;4.85;3.52;;;;;;;30.75;59.21;101052.85;1724209;82;20971;-44
2022/08/08 10:06:15;;;;;;;9.28;4.08;;;;;;;30.45;54.98;101050.75;1724192;83;21044;-43
2022/08/08 10:08:45;;;;;;;9.45;3.67;;;;;;;30.15;57.05;101067.80;1670504;83;21235;-43
2022/08/08 10:11:22;;;;;;;11.60;3.80;;;;;;;30.00;57.77;101065.55;1724267;83;21015;-44
2022/08/08 10:14:00;;;;;;;10.80;3.90;;;;;;;30.11;56.85;101064.59;1724295;83;20967;-44
2022/08/08 10:16:40;;;;;;;8.60;3.05;;;;;;;30.40;55.97;101055.69;1724154;83;21051;-43
2022/08/08 10:19:10;;;;;;;6.05;3.87;;;;;;;30.73;56.25;101058.02;1693412;83;21044;-44
2022/08/08 10:21:37;;;;;;;7.37;4.30;;;;;;;31.14;55.49;101057.17;1724516;83;21796;-44
2022/08/08 10:24:08;;;;;;;6.85;3.83;;;;;;;31.47;53.64;101058.91;1724092;82;21004;-44
2022/08/08 10:26:43;;;;;;;6.53;4.15;;;;;;;31.44;52.23;101063.20;1693782;83;21514;-44
2022/08/08 10:29:11;;;;;;;6.78;3.70;;;;;;;31.42;53.39;101059.84;1724233;82;21046;-43
2022/08/08 10:34:27;;;;;;;3.70;2.98;;;;;;;31.34;51.30;101054.41;1724178;83;21172;-44
2022/08/08 10:36:55;;;;;;;4.17;3.02;;;;;;;31.25;50.47;101052.14;1724283;83;21099;-44
2022/08/08 10:39:25;;;;;;;5.72;2.62;;;;;;;31.27;50.92;101053.34;1724063;83;20999;-44
2022/08/08 10:42:00;;;;;;;6.12;2.72;;;;;;;31.15;50.75;101062.86;1724312;83;20956;-44
2022/08/08 10:44:39;;;;;;;;;;;;;;;30.96;49.90;101057.98;1726941;83;21030;-44
2022/08/08 10:47:18;;;;;;;3.50;2.58;;;;;;;30.75;50.21;101058.19;1724266;83;20614;-44
2022/08/08 10:50:02;;;;;;;7.47;2.90;;;;;;;30.62;50.45;101058.52;1724100;83;20944;-43
2022/08/08 10:52:38;;;;;;;4.42;2.80;;;;;;;30.48;51.97;101052.30;1724296;83;21043;-43
2022/08/08 10:55:12;;;;;;;8.33;2.60;;;;;;;30.17;52.71;101055.15;1723961;83;20952;-43
2022/08/08 10:57:41;;;;;;;3.47;2.90;;;;;;;29.96;52.95;101050.81;1724338;83;21558;-44
2022/08/08 11:00:11;;;;;;;4.60;3.55;;;;;;;29.97;54.47;101052.49;1724512;83;21882;-44
2022/08/08 11:02:38;;;;;;;5.05;3.42;;;;;;;29.99;55.54;101041.66;1693964;83;20925;-44
2022/08/08 11:05:08;;;;;;;7.95;3.37;;;;;;;30.23;57.06;101041.26;1724218;83;21063;-44
2022/08/08 11:07:39;;;;;;;5.40;3.58;;;;;;;30.56;56.96;101039.53;1693862;83;21020;-44
2022/08/08 11:10:11;;;;;;;5.40;3.65;;;;;;;30.76;55.89;101036.34;1724490;83;21518;-44
2022/08/08 11:12:53;;;;;;;12.58;4.10;;;;;;;30.90;57.67;101036.35;1724228;83;21849;-44
2022/08/08 11:15:22;;;;;;;5.08;3.80;;;;;;;30.94;58.81;101041.73;1724186;83;21490;-44
2022/08/08 11:17:51;;;;;;;6.95;3.27;;;;;;;31.08;54.08;101037.73;1693482;83;21007;-44
2022/08/08 11:20:24;;;;;;;11.50;3.15;;;;;;;31.10;53.31;101045.09;1729302;81;20948;-44
2022/08/08 11:22:55;;;;;;;4.55;2.80;;;;;;;31.10;52.97;101037.94;1739817;81;20979;-44
2022/08/08 11:25:26;;;;;;;3.98;2.72;;;;;;;31.03;55.25;101041.34;1709122;83;21134;-44
2022/08/08 11:27:54;;;;;;;9.03;3.05;;;;;;;31.01;54.78;101040.15;1729618;81;20995;-44
2022/08/08 11:30:27;;;;;;;6.55;2.95;;;;;;;30.88;53.76;101041.83;1740027;82;21510;-44
2022/08/08 11:32:56;;;;;;;5.15;2.85;;;;;;;30.90;53.78;101043.86;1729826;83;21055;-44
2022/08/08 11:35:24;;;;;;;3.50;2.83;;;;;;;30.85;54.17;101038.63;1739795;82;20928;-43
2022/08/08 11:37:51;;;;;;;7.05;2.83;;;;;;;30.80;53.25;101039.89;1707539;84;21494;-44
2022/08/08 11:40:18;;;;;;;9.90;2.87;;;;;;;30.58;54.79;101039.75;1729808;83;20928;-44
2022/08/08 11:42:44;;;;;;;4.65;2.80;;;;;;;30.32;54.16;101043.05;1739987;82;20892;-44
2022/08/08 11:45:12;;;;;;;6.75;3.05;;;;;;;29.96;55.41;101040.96;1729979;83;20964;-44
2022/08/08 11:47:41;;;;;;;8.28;3.42;;;;;;;29.69;57.48;101049.69;1680207;85;20996;-44
2022/08/08 11:50:12;;;;;;;10.10;3.52;;;;;;;29.53;58.88;101049.73;1710334;84;21964;-44
2022/08/08 11:52:39;;;;;;;3.77;3.25;;;;;;;29.27;58.50;101056.02;1700568;84;21047;-44
2022/08/08 11:55:18;;;;;;;6.65;3.60;;;;;;;29.11;60.85;101055.22;1710316;84;21010;-44
2022/08/08 11:57:46;;;;;;;8.80;3.83;;;;;;;28.98;60.44;101045.30;1700645;84;20960;-44
2022/08/08 14:38:00;;;;;;;10.28;4.05;;;;;;;31.18;60.51;101022.46;1820127;78;22437;-41
2022/08/08 14:40:30;;;;;;;7.28;3.52;;;;;;;31.08;59.10;101024.36;1793181;80;20979;-42
2022/08/08 14:43:01;;;;;;;9.03;3.37;;;;;;;30.78;59.94;101027.17;1762161;80;21188;-43
2022/08/08 14:45:28;;;;;;;9.75;3.70;;;;;;;30.48;61.20;101020.26;1791967;80;21010;-43
2022/08/08 14:47:59;;;;;;;9.35;3.77;;;;;;;30.28;62.75;101018.12;1792928;80;20899;-43